createdAt,value
2019-05-31T00:00:19.550Z,5.60
2019-05-31T00:00:55.265Z,5.60
2019-05-31T00:01:30.390Z,3.20
2019-05-31T00:02:05.811Z,3.20
2019-05-31T00:02:41.235Z,5.60
2019-05-31T00:03:16.667Z,4.80
2019-05-31T00:03:53.015Z,2.40
2019-05-31T00:04:27.531Z,5.60
2019-05-31T00:05:02.820Z,5.60
2019-05-31T00:05:38.145Z,4.80
2019-05-31T00:06:13.737Z,4.80
2019-05-31T00:06:49.174Z,3.20
2019-05-31T00:07:25.130Z,2.40
2019-05-31T00:08:00.115Z,6.40
2019-05-31T00:08:35.622Z,4.80
2019-05-31T00:09:10.850Z,5.60
2019-05-31T00:09:46.143Z,6.40
2019-05-31T00:10:21.480Z,6.40
2019-05-31T00:10:57.963Z,6.40
2019-05-31T00:11:32.344Z,4.80
2019-05-31T00:12:07.751Z,5.60
2019-05-31T00:12:43.101Z,4.00
2019-05-31T00:13:18.719Z,5.60
2019-05-31T00:13:57.188Z,4.00
2019-05-31T00:14:29.652Z,6.40
2019-05-31T00:15:04.781Z,8.00
2019-05-31T00:15:40.373Z,4.00
2019-05-31T00:16:15.689Z,5.60
2019-05-31T00:16:52.581Z,4.00
2019-05-31T00:17:26.748Z,4.80
2019-05-31T00:18:02.763Z,6.40
2019-05-31T00:18:37.176Z,6.40
2019-05-31T00:19:12.697Z,4.80
2019-05-31T00:19:48.518Z,3.20
2019-05-31T00:20:24.033Z,4.00
2019-05-31T00:20:59.380Z,5.60
2019-05-31T00:21:34.649Z,8.80
2019-05-31T00:22:09.870Z,7.20
2019-05-31T00:22:45.194Z,3.20
2019-05-31T00:23:20.407Z,5.60
2019-05-31T00:23:56.046Z,10.40
2019-05-31T00:24:31.137Z,4.80
2019-05-31T00:25:06.409Z,4.00
2019-05-31T00:25:41.673Z,4.80
2019-05-31T00:26:17.190Z,5.60
2019-05-31T00:26:52.331Z,7.20
2019-05-31T00:27:27.772Z,4.00
2019-05-31T00:28:03.187Z,4.00
2019-05-31T00:28:38.479Z,4.80
2019-05-31T00:29:13.711Z,2.40
2019-05-31T00:29:49.013Z,4.80
2019-05-31T00:30:24.429Z,5.60
2019-05-31T00:31:00.223Z,5.60
2019-05-31T00:31:35.572Z,4.80
2019-05-31T00:32:10.795Z,3.20
2019-05-31T00:32:46.313Z,4.00
2019-05-31T00:33:21.852Z,4.80
2019-05-31T00:33:57.439Z,3.20
2019-05-31T00:34:32.388Z,3.20
2019-05-31T00:35:07.614Z,4.00
2019-05-31T00:35:43.016Z,2.40
2019-05-31T00:36:18.442Z,3.20
2019-05-31T00:36:54.513Z,3.20
2019-05-31T00:37:29.009Z,2.40
2019-05-31T00:38:04.241Z,4.80
2019-05-31T00:38:39.533Z,5.60
2019-05-31T00:39:15.148Z,4.80
2019-05-31T00:39:50.352Z,2.40
2019-05-31T00:40:25.886Z,4.80
2019-05-31T00:41:01.365Z,3.20
2019-05-31T00:41:36.895Z,3.20
2019-05-31T00:42:12.216Z,4.00
2019-05-31T00:42:47.751Z,5.60
2019-05-31T00:43:23.074Z,4.80
2019-05-31T00:43:59.420Z,4.80
2019-05-31T00:44:33.706Z,6.40
2019-05-31T00:45:08.959Z,4.80
2019-05-31T00:45:44.467Z,3.20
2019-05-31T00:46:19.689Z,3.20
2019-05-31T00:46:55.286Z,2.40
2019-05-31T00:47:30.626Z,4.00
2019-05-31T00:48:06.078Z,4.00
2019-05-31T00:48:41.285Z,3.20
2019-05-31T00:49:16.909Z,3.20
2019-05-31T00:49:52.136Z,4.00
2019-05-31T00:50:27.442Z,4.00
2019-05-31T00:51:02.700Z,3.20
2019-05-31T00:51:37.850Z,5.60
2019-05-31T00:52:13.168Z,4.80
2019-05-31T00:52:48.504Z,3.20
2019-05-31T00:53:23.916Z,5.60
2019-05-31T00:54:00.122Z,4.80
2019-05-31T00:54:34.230Z,4.00
2019-05-31T00:55:09.567Z,2.40
2019-05-31T00:55:44.804Z,2.40
2019-05-31T00:56:20.150Z,2.40
2019-05-31T00:56:56.470Z,2.40
2019-05-31T00:57:31.196Z,3.20
2019-05-31T00:58:06.670Z,2.40
2019-05-31T00:58:41.842Z,2.40
2019-05-31T00:59:17.177Z,4.00
2019-05-31T00:59:52.567Z,2.40
2019-05-31T01:00:27.797Z,1.60
2019-05-31T01:01:03.809Z,3.20
2019-05-31T01:01:38.428Z,4.00
2019-05-31T01:02:13.741Z,4.00
2019-05-31T01:02:49.148Z,4.00
2019-05-31T01:03:24.581Z,5.60
2019-05-31T01:04:01.065Z,4.80
2019-05-31T01:04:35.513Z,3.20
2019-05-31T01:05:10.844Z,2.40
2019-05-31T01:05:46.340Z,4.00
2019-05-31T01:06:21.909Z,2.40
2019-05-31T01:06:57.229Z,4.00
2019-05-31T01:07:32.544Z,2.40
2019-05-31T01:08:07.864Z,4.00
2019-05-31T01:08:43.165Z,3.20
2019-05-31T01:09:18.385Z,3.20
2019-05-31T01:09:53.871Z,2.40
2019-05-31T01:10:29.103Z,4.80
2019-05-31T01:11:05.728Z,4.00
2019-05-31T01:11:39.985Z,4.00
2019-05-31T01:12:15.168Z,3.20
2019-05-31T01:12:50.599Z,6.40
2019-05-31T01:13:25.835Z,4.00
2019-05-31T01:14:01.935Z,3.20
2019-05-31T01:14:49.354Z,3.20
2019-05-31T01:15:12.269Z,4.80
2019-05-31T01:15:47.470Z,4.00
2019-05-31T01:16:23.107Z,3.20
2019-05-31T01:16:58.422Z,3.20
2019-05-31T01:17:33.547Z,3.20
2019-05-31T01:18:08.877Z,3.20
2019-05-31T01:18:44.088Z,5.60
2019-05-31T01:19:19.210Z,7.20
2019-05-31T01:19:54.736Z,3.20
2019-05-31T01:20:30.461Z,7.20
2019-05-31T01:21:06.828Z,3.20
2019-05-31T01:21:41.367Z,4.80
2019-05-31T01:22:16.395Z,3.20
2019-05-31T01:22:51.634Z,4.80
2019-05-31T01:23:27.056Z,4.80
2019-05-31T01:24:03.038Z,2.40
2019-05-31T01:24:38.080Z,4.00
2019-05-31T01:25:13.202Z,4.00
2019-05-31T01:25:48.419Z,6.40
2019-05-31T01:26:23.733Z,4.80
2019-05-31T01:26:59.259Z,3.20
2019-05-31T01:27:34.495Z,4.00
2019-05-31T01:28:10.031Z,4.80
2019-05-31T01:28:45.435Z,3.20
2019-05-31T01:29:20.756Z,4.80
2019-05-31T01:29:56.045Z,4.80
2019-05-31T01:30:31.274Z,4.00
2019-05-31T01:31:07.749Z,3.20
2019-05-31T01:31:42.230Z,8.00
2019-05-31T01:32:17.656Z,7.20
2019-05-31T01:32:53.383Z,5.60
2019-05-31T01:33:28.609Z,5.60
2019-05-31T01:34:04.545Z,4.00
2019-05-31T01:34:39.232Z,5.60
2019-05-31T01:35:14.367Z,7.20
2019-05-31T01:35:49.568Z,4.80
2019-05-31T01:36:25.291Z,4.80
2019-05-31T01:37:00.606Z,4.80
2019-05-31T01:37:35.935Z,4.00
2019-05-31T01:38:11.353Z,8.00
2019-05-31T01:38:46.964Z,4.80
2019-05-31T01:39:22.617Z,4.80
2019-05-31T01:39:58.022Z,2.40
2019-05-31T01:40:33.352Z,5.60
2019-05-31T01:41:08.904Z,4.00
2019-05-31T01:41:44.187Z,4.00
2019-05-31T01:42:19.501Z,4.80
2019-05-31T01:42:54.717Z,7.20
2019-05-31T01:43:30.052Z,4.80
2019-05-31T01:44:05.576Z,4.80
2019-05-31T01:44:40.675Z,3.20
2019-05-31T01:45:18.855Z,5.60
2019-05-31T01:45:50.999Z,3.20
2019-05-31T01:46:26.232Z,4.00
2019-05-31T01:47:01.357Z,4.80
2019-05-31T01:47:36.594Z,6.40
2019-05-31T01:48:12.399Z,4.80
2019-05-31T01:48:47.740Z,4.00
2019-05-31T01:49:22.942Z,4.80
2019-05-31T01:49:58.290Z,4.00
2019-05-31T01:50:33.578Z,5.60
2019-05-31T01:51:09.807Z,8.80
2019-05-31T01:51:44.319Z,4.00
2019-05-31T01:52:19.638Z,4.80
2019-05-31T01:52:55.045Z,5.60
2019-05-31T01:53:30.495Z,4.80
2019-05-31T01:54:06.232Z,6.40
2019-05-31T01:54:41.024Z,5.60
2019-05-31T01:55:16.617Z,7.20
2019-05-31T01:55:51.871Z,6.40
2019-05-31T01:56:27.068Z,5.60
2019-05-31T01:57:02.628Z,4.80
2019-05-31T01:57:37.936Z,5.60
2019-05-31T01:58:13.157Z,4.80
2019-05-31T01:58:48.377Z,6.40
2019-05-31T01:59:23.803Z,5.60
2019-05-31T01:59:59.208Z,4.00
2019-05-31T02:00:34.841Z,4.00
2019-05-31T02:01:11.433Z,4.80
2019-05-31T02:01:45.981Z,4.80
2019-05-31T02:02:21.502Z,6.40
2019-05-31T02:02:56.516Z,6.41
2019-05-31T02:03:31.858Z,7.20
2019-05-31T02:04:08.069Z,6.40
2019-05-31T02:04:42.837Z,4.00
2019-05-31T02:05:18.367Z,5.60
2019-05-31T02:05:53.661Z,6.40
2019-05-31T02:06:29.183Z,7.20
2019-05-31T02:07:04.592Z,6.40
2019-05-31T02:07:40.209Z,7.20
2019-05-31T02:08:16.911Z,5.60
2019-05-31T02:08:50.966Z,8.00
2019-05-31T02:09:26.470Z,7.20
2019-05-31T02:10:01.705Z,6.40
2019-05-31T02:10:36.808Z,8.00
2019-05-31T02:11:12.847Z,4.00
2019-05-31T02:11:47.243Z,6.40
2019-05-31T02:12:22.584Z,4.80
2019-05-31T02:12:58.074Z,4.00
2019-05-31T02:13:33.315Z,4.80
2019-05-31T02:14:08.544Z,4.00
2019-05-31T02:14:43.881Z,4.00
2019-05-31T02:15:31.588Z,5.60
2019-05-31T02:15:54.621Z,6.40
2019-05-31T02:16:29.913Z,6.40
2019-05-31T02:17:05.459Z,4.80
2019-05-31T02:17:40.341Z,8.00
2019-05-31T02:18:16.807Z,6.40
2019-05-31T02:18:50.931Z,4.00
2019-05-31T02:19:26.457Z,4.80
2019-05-31T02:20:01.815Z,6.40
2019-05-31T02:20:37.143Z,5.60
2019-05-31T02:21:13.817Z,7.20
2019-05-31T02:21:47.914Z,4.80
2019-05-31T02:22:23.316Z,5.60
2019-05-31T02:22:58.648Z,6.40
2019-05-31T02:23:34.146Z,4.80
2019-05-31T02:24:10.953Z,5.60
2019-05-31T02:24:44.774Z,4.80
2019-05-31T02:25:20.004Z,4.00
2019-05-31T02:25:55.388Z,5.60
2019-05-31T02:26:30.734Z,8.00
2019-05-31T02:27:07.183Z,4.00
2019-05-31T02:27:41.358Z,4.80
2019-05-31T02:28:16.738Z,6.40
2019-05-31T02:28:52.083Z,5.60
2019-05-31T02:29:27.410Z,4.80
2019-05-31T02:30:02.777Z,6.40
2019-05-31T02:30:37.952Z,4.80
2019-05-31T02:31:14.525Z,5.60
2019-05-31T02:31:48.666Z,5.60
2019-05-31T02:32:24.196Z,5.60
2019-05-31T02:32:59.397Z,5.60
2019-05-31T02:33:35.233Z,4.80
2019-05-31T02:34:12.725Z,4.80
2019-05-31T02:34:46.273Z,4.80
2019-05-31T02:35:21.585Z,4.00
2019-05-31T02:35:57.330Z,3.20
2019-05-31T02:36:32.622Z,7.20
2019-05-31T02:37:08.848Z,10.40
2019-05-31T02:37:43.158Z,7.20
2019-05-31T02:38:18.594Z,4.80
2019-05-31T02:38:53.978Z,4.00
2019-05-31T02:39:31.682Z,6.40
2019-05-31T02:40:07.260Z,7.20
2019-05-31T02:40:40.348Z,5.60
2019-05-31T02:41:17.704Z,5.60
2019-05-31T02:41:51.285Z,4.00
2019-05-31T02:42:26.591Z,4.80
2019-05-31T02:43:01.917Z,4.80
2019-05-31T02:43:37.410Z,4.80
2019-05-31T02:44:13.669Z,4.00
2019-05-31T02:44:48.652Z,4.80
2019-05-31T02:45:24.357Z,5.60
2019-05-31T02:45:59.738Z,4.80
2019-05-31T02:46:35.060Z,6.40
2019-05-31T02:47:11.498Z,7.20
2019-05-31T02:47:46.285Z,1.60
2019-05-31T02:48:21.475Z,3.20
2019-05-31T02:48:56.702Z,4.00
2019-05-31T02:49:31.822Z,7.20
2019-05-31T02:50:08.313Z,6.40
2019-05-31T02:50:42.633Z,4.80
2019-05-31T02:51:19.315Z,4.00
2019-05-31T02:51:53.291Z,2.40
2019-05-31T02:52:28.910Z,4.80
2019-05-31T02:53:04.207Z,4.00
2019-05-31T02:53:39.637Z,3.20
2019-05-31T02:54:16.688Z,2.40
2019-05-31T02:54:50.033Z,5.60
2019-05-31T02:55:25.285Z,4.00
2019-05-31T02:56:00.712Z,3.20
2019-05-31T02:56:35.923Z,3.20
2019-05-31T02:57:12.697Z,6.40
2019-05-31T02:57:46.571Z,4.80
2019-05-31T02:58:21.787Z,6.40
2019-05-31T02:58:57.605Z,4.80
2019-05-31T02:59:33.214Z,3.20
2019-05-31T03:00:09.073Z,3.20
2019-05-31T03:00:43.751Z,4.80
2019-05-31T03:01:20.921Z,7.20
2019-05-31T03:01:54.301Z,4.00
2019-05-31T03:02:29.691Z,3.20
2019-05-31T03:03:05.130Z,4.80
2019-05-31T03:03:40.421Z,6.40
2019-05-31T03:04:17.677Z,7.20
2019-05-31T03:04:51.506Z,3.20
2019-05-31T03:05:26.948Z,4.00
2019-05-31T03:06:02.253Z,4.00
2019-05-31T03:06:37.890Z,2.40
2019-05-31T03:07:13.826Z,3.20
2019-05-31T03:07:48.623Z,3.20
2019-05-31T03:08:24.025Z,3.20
2019-05-31T03:08:59.359Z,4.80
2019-05-31T03:09:34.846Z,5.60
2019-05-31T03:10:12.623Z,4.80
2019-05-31T03:10:46.240Z,3.20
2019-05-31T03:11:21.586Z,5.60
2019-05-31T03:11:56.775Z,4.00
2019-05-31T03:12:32.313Z,8.00
2019-05-31T03:13:07.609Z,8.00
2019-05-31T03:13:42.761Z,5.60
2019-05-31T03:14:18.958Z,4.80
2019-05-31T03:14:53.639Z,5.60
2019-05-31T03:15:28.870Z,4.00
2019-05-31T03:16:07.799Z,5.60
2019-05-31T03:16:39.674Z,5.60
2019-05-31T03:17:17.437Z,3.20
2019-05-31T03:17:50.814Z,4.00
2019-05-31T03:18:26.055Z,4.80
2019-05-31T03:19:01.444Z,4.00
2019-05-31T03:19:36.580Z,5.60
2019-05-31T03:20:13.554Z,5.60
2019-05-31T03:20:50.254Z,5.60
2019-05-31T03:21:23.065Z,6.40
2019-05-31T03:21:58.541Z,7.20
2019-05-31T03:22:33.949Z,6.40
2019-05-31T03:23:09.075Z,9.60
2019-05-31T03:23:44.690Z,6.40
2019-05-31T03:24:21.339Z,6.40
2019-05-31T03:24:55.234Z,6.40
2019-05-31T03:25:30.561Z,7.20
2019-05-31T03:26:05.977Z,6.40
2019-05-31T03:26:41.206Z,3.20
2019-05-31T03:27:16.695Z,3.20
2019-05-31T03:27:51.454Z,6.40
2019-05-31T03:28:26.738Z,6.40
2019-05-31T03:29:02.269Z,6.40
2019-05-31T03:29:37.513Z,4.00
2019-05-31T03:30:15.849Z,4.00
2019-05-31T03:30:48.650Z,3.20
2019-05-31T03:31:34.135Z,4.00
2019-05-31T03:32:05.483Z,4.80
2019-05-31T03:32:39.028Z,5.60
2019-05-31T03:33:10.153Z,5.60
2019-05-31T03:33:45.578Z,4.80
2019-05-31T03:34:26.974Z,4.00
2019-05-31T03:34:56.015Z,7.20
2019-05-31T03:35:37.194Z,7.20
2019-05-31T03:36:06.668Z,4.00
2019-05-31T03:36:42.163Z,6.41
2019-05-31T03:37:19.142Z,5.60
2019-05-31T03:37:52.896Z,5.60
2019-05-31T03:38:28.639Z,4.80
2019-05-31T03:39:04.045Z,4.80
2019-05-31T03:39:39.473Z,5.60
2019-05-31T03:40:14.732Z,5.60
2019-05-31T03:40:50.034Z,6.40
2019-05-31T03:41:26.680Z,6.40
2019-05-31T03:42:00.978Z,6.40
2019-05-31T03:42:36.398Z,5.60
2019-05-31T03:43:11.631Z,3.20
2019-05-31T03:43:47.036Z,8.81
2019-05-31T03:44:23.155Z,4.80
2019-05-31T03:44:57.282Z,4.80
2019-05-31T03:45:32.769Z,4.80
2019-05-31T03:46:26.268Z,6.40
2019-05-31T03:46:43.616Z,4.80
2019-05-31T03:47:18.945Z,5.60
2019-05-31T03:47:54.113Z,4.80
2019-05-31T03:48:29.519Z,7.20
2019-05-31T03:49:05.054Z,5.60
2019-05-31T03:49:40.814Z,8.00
2019-05-31T03:50:16.873Z,6.40
2019-05-31T03:50:51.695Z,6.40
2019-05-31T03:51:27.447Z,6.40
2019-05-31T03:52:02.626Z,5.60
2019-05-31T03:52:37.862Z,6.40
2019-05-31T03:53:14.981Z,4.80
2019-05-31T03:53:48.414Z,4.80
2019-05-31T03:54:23.799Z,5.60
2019-05-31T03:54:58.769Z,3.20
2019-05-31T03:55:34.034Z,4.80
2019-05-31T03:56:09.478Z,2.40
2019-05-31T03:56:44.677Z,3.20
2019-05-31T03:57:21.258Z,8.80
2019-05-31T03:57:55.401Z,8.00
2019-05-31T03:58:30.620Z,7.20
2019-05-31T03:59:05.926Z,4.80
2019-05-31T03:59:41.372Z,1.60
2019-05-31T04:00:17.667Z,4.80
2019-05-31T04:00:51.942Z,4.80
2019-05-31T04:01:27.241Z,2.40
2019-05-31T04:02:02.780Z,3.20
2019-05-31T04:02:38.377Z,3.20
2019-05-31T04:03:14.579Z,2.40
2019-05-31T04:03:49.106Z,4.80
2019-05-31T04:04:26.096Z,8.00
2019-05-31T04:04:59.754Z,8.80
2019-05-31T04:05:34.983Z,4.80
2019-05-31T04:06:10.316Z,5.60
2019-05-31T04:06:45.548Z,7.20
2019-05-31T04:07:20.956Z,7.20
2019-05-31T04:07:56.178Z,6.40
2019-05-31T04:08:31.793Z,4.00
2019-05-31T04:09:07.319Z,5.60
2019-05-31T04:09:42.628Z,4.00
2019-05-31T04:10:18.105Z,7.20
2019-05-31T04:10:53.579Z,11.21
2019-05-31T04:11:29.178Z,6.40
2019-05-31T04:12:04.320Z,6.40
2019-05-31T04:12:39.735Z,6.40
2019-05-31T04:13:15.470Z,6.40
2019-05-31T04:13:50.314Z,7.20
2019-05-31T04:14:27.417Z,7.20
2019-05-31T04:15:00.793Z,6.40
2019-05-31T04:15:36.115Z,7.20
2019-05-31T04:16:11.399Z,4.80
2019-05-31T04:16:49.926Z,2.40
2019-05-31T04:17:23.556Z,5.60
2019-05-31T04:17:57.670Z,4.80
2019-05-31T04:18:34.741Z,3.20
2019-05-31T04:19:08.617Z,3.20
2019-05-31T04:19:44.138Z,4.80
2019-05-31T04:20:20.110Z,5.60
2019-05-31T04:20:54.817Z,7.20
2019-05-31T04:21:30.261Z,4.80
2019-05-31T04:22:05.691Z,8.00
2019-05-31T04:22:40.880Z,8.80
2019-05-31T04:23:17.606Z,4.80
2019-05-31T04:23:51.316Z,5.60
2019-05-31T04:24:26.867Z,3.20
2019-05-31T04:25:02.360Z,5.60
2019-05-31T04:25:37.886Z,5.60
2019-05-31T04:26:13.196Z,4.80
2019-05-31T04:26:48.660Z,4.00
2019-05-31T04:27:25.051Z,2.40
2019-05-31T04:27:59.987Z,3.20
2019-05-31T04:28:35.477Z,4.80
2019-05-31T04:29:10.913Z,7.20
2019-05-31T04:29:46.412Z,10.40
2019-05-31T04:30:22.281Z,9.60
2019-05-31T04:30:57.204Z,10.40
2019-05-31T04:31:32.487Z,7.20
2019-05-31T04:32:07.693Z,3.20
2019-05-31T04:32:42.821Z,7.21
2019-05-31T04:33:18.148Z,8.00
2019-05-31T04:33:53.360Z,5.60
2019-05-31T04:34:32.571Z,8.80
2019-05-31T04:35:04.194Z,5.60
2019-05-31T04:35:39.690Z,6.40
2019-05-31T04:36:15.979Z,7.20
2019-05-31T04:36:50.346Z,8.00
2019-05-31T04:37:26.022Z,10.40
2019-05-31T04:38:00.989Z,12.81
2019-05-31T04:38:36.398Z,9.60
2019-05-31T04:39:11.599Z,9.60
2019-05-31T04:39:46.934Z,10.40
2019-05-31T04:40:23.335Z,9.60
2019-05-31T04:40:57.557Z,10.40
2019-05-31T04:41:32.693Z,10.40
2019-05-31T04:42:08.131Z,4.00
2019-05-31T04:42:43.429Z,7.20
2019-05-31T04:43:20.187Z,17.61
2019-05-31T04:43:57.942Z,16.01
2019-05-31T04:44:29.682Z,8.80
2019-05-31T04:45:04.897Z,6.40
2019-05-31T04:45:40.012Z,7.21
2019-05-31T04:46:16.046Z,8.80
2019-05-31T04:47:08.984Z,4.80
2019-05-31T04:47:27.237Z,6.40
2019-05-31T04:48:01.484Z,6.40
2019-05-31T04:48:36.728Z,9.60
2019-05-31T04:49:12.160Z,12.01
2019-05-31T04:49:47.553Z,8.81
2019-05-31T04:50:23.425Z,7.20
2019-05-31T04:50:58.311Z,11.21
2019-05-31T04:51:33.473Z,16.01
2019-05-31T04:52:08.893Z,8.00
2019-05-31T04:52:44.325Z,20.81
2019-05-31T04:53:20.472Z,13.61
2019-05-31T04:53:54.949Z,12.01
2019-05-31T04:54:30.447Z,8.80
2019-05-31T04:55:05.469Z,4.80
2019-05-31T04:55:41.265Z,6.40
2019-05-31T04:56:18.594Z,5.60
2019-05-31T04:56:52.427Z,4.00
2019-05-31T04:57:27.859Z,5.60
2019-05-31T04:58:03.163Z,8.80
2019-05-31T04:58:38.490Z,9.60
2019-05-31T04:59:13.789Z,5.60
2019-05-31T04:59:49.018Z,11.21
2019-05-31T05:00:26.321Z,7.20
2019-05-31T05:00:59.236Z,6.40
2019-05-31T05:01:34.884Z,16.81
2019-05-31T05:02:10.009Z,15.21
2019-05-31T05:02:45.222Z,7.20
2019-05-31T05:03:24.916Z,2.40
2019-05-31T05:03:55.979Z,7.20
2019-05-31T05:04:31.543Z,6.40
2019-05-31T05:05:07.148Z,5.60
2019-05-31T05:05:42.473Z,8.00
2019-05-31T05:06:18.453Z,5.60
2019-05-31T05:06:53.228Z,5.60
2019-05-31T05:07:28.642Z,4.00
2019-05-31T05:08:04.179Z,8.00
2019-05-31T05:08:39.576Z,6.40
2019-05-31T05:09:16.459Z,5.60
2019-05-31T05:09:50.335Z,5.60
2019-05-31T05:10:26.867Z,10.40
2019-05-31T05:11:00.667Z,9.60
2019-05-31T05:11:35.817Z,7.20
2019-05-31T05:12:11.223Z,10.40
2019-05-31T05:12:46.850Z,9.60
2019-05-31T05:13:22.602Z,7.20
2019-05-31T05:13:57.927Z,8.01
2019-05-31T05:14:33.334Z,8.00
2019-05-31T05:15:08.653Z,11.21
2019-05-31T05:15:44.064Z,8.80
2019-05-31T05:16:20.563Z,9.60
2019-05-31T05:16:54.939Z,11.21
2019-05-31T05:17:40.692Z,12.01
2019-05-31T05:18:05.887Z,5.60
2019-05-31T05:18:41.307Z,14.41
2019-05-31T05:19:16.718Z,10.40
2019-05-31T05:19:51.612Z,8.80
2019-05-31T05:20:27.015Z,10.40
2019-05-31T05:21:02.054Z,17.61
2019-05-31T05:21:37.680Z,15.21
2019-05-31T05:22:13.027Z,8.00
2019-05-31T05:22:48.231Z,13.61
2019-05-31T05:23:23.805Z,9.60
2019-05-31T05:23:58.860Z,13.61
2019-05-31T05:24:34.380Z,11.21
2019-05-31T05:25:09.641Z,15.20
2019-05-31T05:25:45.098Z,9.60
2019-05-31T05:26:20.960Z,16.81
2019-05-31T05:26:55.579Z,12.81
2019-05-31T05:27:30.987Z,11.21
2019-05-31T05:28:06.221Z,7.20
2019-05-31T05:28:41.807Z,11.21
2019-05-31T05:29:17.471Z,10.40
2019-05-31T05:29:52.281Z,5.60
2019-05-31T05:30:27.736Z,5.60
2019-05-31T05:31:03.211Z,3.20
2019-05-31T05:31:38.660Z,6.40
2019-05-31T05:32:13.873Z,13.61
2019-05-31T05:32:49.113Z,12.01
2019-05-31T05:33:24.521Z,13.61
2019-05-31T05:33:59.952Z,9.60
2019-05-31T05:34:35.157Z,9.60
2019-05-31T05:35:10.492Z,4.80
2019-05-31T05:35:45.917Z,5.60
2019-05-31T05:36:22.371Z,8.01
2019-05-31T05:36:56.578Z,11.21
2019-05-31T05:37:31.867Z,9.60
2019-05-31T05:38:07.391Z,8.00
2019-05-31T05:38:43.877Z,8.00
2019-05-31T05:39:20.541Z,14.41
2019-05-31T05:39:54.500Z,8.80
2019-05-31T05:40:29.806Z,4.80
2019-05-31T05:41:05.475Z,2.40
2019-05-31T05:41:40.804Z,4.80
2019-05-31T05:42:16.120Z,10.40
2019-05-31T05:42:51.435Z,9.60
2019-05-31T05:43:27.171Z,7.20
2019-05-31T05:44:02.177Z,8.00
2019-05-31T05:44:37.597Z,8.00
2019-05-31T05:45:12.874Z,8.00
2019-05-31T05:45:48.149Z,4.80
2019-05-31T05:46:23.567Z,9.60
2019-05-31T05:46:58.714Z,9.60
2019-05-31T05:47:46.813Z,7.20
2019-05-31T05:48:09.256Z,9.60
2019-05-31T05:48:44.848Z,6.40
2019-05-31T05:49:22.426Z,10.40
2019-05-31T05:49:56.699Z,7.20
2019-05-31T05:50:32.343Z,6.40
2019-05-31T05:51:07.751Z,14.41
2019-05-31T05:51:43.188Z,7.20
2019-05-31T05:52:19.770Z,12.81
2019-05-31T05:52:54.341Z,5.60
2019-05-31T05:53:30.515Z,5.60
2019-05-31T05:54:05.257Z,7.20
2019-05-31T05:54:40.661Z,14.41
2019-05-31T05:55:16.196Z,6.40
2019-05-31T05:55:51.392Z,12.01
2019-05-31T05:56:26.898Z,7.20
2019-05-31T05:57:01.854Z,4.80
2019-05-31T05:57:36.891Z,7.20
2019-05-31T05:58:12.293Z,5.60
2019-05-31T05:58:48.057Z,4.80
2019-05-31T05:59:23.666Z,7.20
2019-05-31T05:59:58.882Z,6.40
2019-05-31T06:00:34.495Z,8.00
2019-05-31T06:01:09.830Z,7.20
2019-05-31T06:01:45.042Z,4.00
2019-05-31T06:02:21.301Z,4.80
2019-05-31T06:02:55.669Z,7.20
2019-05-31T06:03:31.743Z,13.61
2019-05-31T06:04:06.405Z,5.60
2019-05-31T06:04:41.845Z,4.80
2019-05-31T06:05:17.332Z,5.60
2019-05-31T06:05:52.790Z,17.61
2019-05-31T06:06:28.236Z,11.21
2019-05-31T06:07:03.530Z,9.60
2019-05-31T06:07:38.954Z,12.01
2019-05-31T06:08:14.399Z,17.61
2019-05-31T06:08:49.633Z,11.21
2019-05-31T06:09:26.315Z,18.41
2019-05-31T06:10:00.245Z,14.41
2019-05-31T06:10:35.572Z,12.01
2019-05-31T06:11:10.939Z,11.21
2019-05-31T06:11:46.432Z,10.40
2019-05-31T06:12:22.789Z,15.21
2019-05-31T06:12:57.684Z,16.81
2019-05-31T06:13:33.178Z,19.21
2019-05-31T06:14:08.473Z,24.82
2019-05-31T06:14:43.960Z,11.21
2019-05-31T06:15:19.424Z,9.60
2019-05-31T06:15:54.777Z,18.41
2019-05-31T06:16:46.419Z,6.40
2019-05-31T06:17:05.522Z,11.21
2019-05-31T06:17:40.568Z,8.00
2019-05-31T06:18:15.959Z,8.00
2019-05-31T06:18:51.488Z,5.60
2019-05-31T06:19:26.939Z,5.60
2019-05-31T06:20:02.148Z,4.80
2019-05-31T06:20:37.153Z,5.60
2019-05-31T06:21:12.759Z,4.00
2019-05-31T06:21:47.986Z,8.80
2019-05-31T06:22:24.319Z,6.40
2019-05-31T06:22:58.741Z,5.60
2019-05-31T06:23:34.074Z,4.80
2019-05-31T06:24:09.470Z,5.60
2019-05-31T06:24:44.847Z,12.81
2019-05-31T06:25:20.159Z,9.60
2019-05-31T06:25:55.502Z,5.60
2019-05-31T06:26:31.207Z,8.00
2019-05-31T06:27:06.812Z,8.00
2019-05-31T06:27:42.231Z,4.80
2019-05-31T06:28:17.679Z,8.80
2019-05-31T06:28:52.804Z,8.00
2019-05-31T06:29:28.673Z,7.20
2019-05-31T06:30:03.741Z,5.60
2019-05-31T06:30:38.968Z,8.00
2019-05-31T06:31:14.471Z,10.40
2019-05-31T06:31:49.909Z,11.21
2019-05-31T06:32:26.833Z,9.60
2019-05-31T06:33:00.984Z,9.60
2019-05-31T06:33:37.133Z,8.00
2019-05-31T06:34:11.631Z,7.20
2019-05-31T06:34:47.163Z,7.20
2019-05-31T06:35:22.675Z,8.00
2019-05-31T06:35:58.191Z,8.00
2019-05-31T06:36:33.576Z,4.80
2019-05-31T06:37:09.110Z,4.80
2019-05-31T06:37:44.562Z,5.60
2019-05-31T06:38:20.158Z,4.00
2019-05-31T06:38:55.780Z,14.41
2019-05-31T06:39:31.303Z,10.40
2019-05-31T06:40:06.927Z,11.21
2019-05-31T06:40:42.354Z,6.41
2019-05-31T06:41:17.651Z,5.60
2019-05-31T06:41:52.982Z,6.40
2019-05-31T06:42:29.162Z,4.80
2019-05-31T06:43:03.922Z,5.60
2019-05-31T06:43:39.244Z,5.60
2019-05-31T06:44:14.598Z,4.80
2019-05-31T06:44:49.928Z,4.00
2019-05-31T06:45:26.860Z,5.60
2019-05-31T06:46:00.745Z,3.20
2019-05-31T06:46:36.171Z,6.40
2019-05-31T06:47:11.273Z,10.40
2019-05-31T06:47:46.609Z,10.40
2019-05-31T06:48:21.909Z,10.40
2019-05-31T06:48:57.540Z,9.60
2019-05-31T06:49:33.063Z,5.60
2019-05-31T06:50:08.441Z,5.60
2019-05-31T06:50:43.563Z,4.80
2019-05-31T06:51:18.965Z,3.20
2019-05-31T06:51:54.087Z,3.20
2019-05-31T06:52:30.183Z,3.20
2019-05-31T06:53:04.530Z,4.00
2019-05-31T06:53:40.244Z,5.60
2019-05-31T06:54:15.641Z,6.40
2019-05-31T06:54:50.907Z,4.80
2019-05-31T06:55:27.244Z,4.00
2019-05-31T06:56:01.649Z,8.00
2019-05-31T06:56:36.871Z,14.41
2019-05-31T06:57:12.378Z,9.60
2019-05-31T06:57:47.915Z,7.20
2019-05-31T06:58:23.427Z,17.61
2019-05-31T06:58:58.538Z,11.21
2019-05-31T06:59:34.252Z,7.20
2019-05-31T07:00:09.317Z,12.81
2019-05-31T07:00:44.725Z,12.01
2019-05-31T07:01:19.983Z,12.81
2019-05-31T07:01:55.296Z,11.21
2019-05-31T07:02:30.603Z,11.21
2019-05-31T07:03:05.804Z,10.40
2019-05-31T07:03:40.947Z,12.81
2019-05-31T07:04:16.151Z,8.80
2019-05-31T07:04:51.518Z,13.61
2019-05-31T07:05:27.599Z,8.80
2019-05-31T07:06:02.417Z,6.40
2019-05-31T07:06:37.636Z,19.21
2019-05-31T07:07:13.158Z,14.41
2019-05-31T07:07:48.336Z,12.01
2019-05-31T07:08:23.654Z,8.00
2019-05-31T07:08:59.276Z,10.40
2019-05-31T07:09:36.309Z,12.01
2019-05-31T07:10:10.264Z,7.20
2019-05-31T07:10:45.715Z,14.41
2019-05-31T07:11:21.454Z,12.81
2019-05-31T07:11:56.992Z,9.60
2019-05-31T07:12:33.509Z,12.81
2019-05-31T07:13:08.329Z,12.01
2019-05-31T07:13:43.670Z,13.61
2019-05-31T07:14:18.901Z,8.00
2019-05-31T07:14:54.006Z,2.40
2019-05-31T07:15:29.814Z,4.80
2019-05-31T07:16:04.677Z,10.40
2019-05-31T07:16:40.317Z,12.01
2019-05-31T07:17:15.733Z,13.61
2019-05-31T07:17:55.278Z,7.20
2019-05-31T07:18:35.582Z,12.01
2019-05-31T07:19:01.721Z,8.80
2019-05-31T07:19:36.838Z,4.80
2019-05-31T07:20:12.176Z,4.80
2019-05-31T07:20:47.395Z,10.40
2019-05-31T07:21:22.757Z,10.40
2019-05-31T07:21:58.052Z,10.40
2019-05-31T07:22:34.570Z,7.20
2019-05-31T07:23:08.999Z,4.80
2019-05-31T07:23:44.343Z,5.60
2019-05-31T07:24:19.790Z,13.61
2019-05-31T07:24:55.580Z,8.00
2019-05-31T07:25:30.937Z,12.01
2019-05-31T07:26:06.071Z,12.01
2019-05-31T07:26:41.490Z,10.40
2019-05-31T07:27:16.928Z,4.00
2019-05-31T07:27:52.243Z,3.20
2019-05-31T07:28:29.043Z,4.00
2019-05-31T07:29:03.286Z,5.60
2019-05-31T07:29:43.833Z,10.40
2019-05-31T07:30:14.130Z,7.20
2019-05-31T07:30:49.895Z,10.40
2019-05-31T07:31:25.086Z,9.60
2019-05-31T07:32:00.648Z,8.00
2019-05-31T07:32:36.052Z,11.21
2019-05-31T07:33:11.525Z,15.21
2019-05-31T07:33:46.708Z,16.81
2019-05-31T07:34:22.141Z,14.41
2019-05-31T07:34:57.455Z,8.80
2019-05-31T07:35:33.977Z,6.40
2019-05-31T07:36:08.694Z,11.21
2019-05-31T07:36:43.745Z,12.01
2019-05-31T07:37:31.204Z,8.80
2019-05-31T07:37:54.779Z,7.20
2019-05-31T07:38:30.631Z,6.40
2019-05-31T07:39:06.060Z,12.81
2019-05-31T07:39:41.822Z,11.21
2019-05-31T07:40:16.504Z,10.40
2019-05-31T07:40:51.921Z,7.21
2019-05-31T07:41:27.387Z,10.40
2019-05-31T07:42:02.502Z,9.60
2019-05-31T07:42:39.196Z,8.00
2019-05-31T07:43:13.345Z,6.40
2019-05-31T07:43:48.574Z,8.00
2019-05-31T07:44:23.769Z,8.80
2019-05-31T07:44:59.136Z,4.00
2019-05-31T07:45:35.396Z,9.60
2019-05-31T07:46:09.483Z,5.60
2019-05-31T07:47:01.261Z,8.80
2019-05-31T07:47:20.165Z,7.20
2019-05-31T07:47:55.588Z,11.21
2019-05-31T07:48:32.032Z,6.40